Time;durP1;ratioP1;P1;durP2;ratioP2;P2;SDS_P1;SDS_P2;PMS_P1;PMS_P2;Temp;Humidity;BMP_temperature;BMP_pressure;BME280_temperature;BME280_humidity;BME280_pressure;Samples;Min_cycle;Max_cycle;Signal;HPM_P1;HPM_P2
2023/10/06 00:02:28;;;;;;;6.85;4.20;;;14.20;99.90;;;-141.84;75.08;20346.34;5056865;28;20548;-63
2023/10/06 00:04:58;;;;;;;5.90;4.10;;;14.20;99.90;;;-141.84;75.51;20328.06;5062952;28;20733;-63
2023/10/06 00:07:26;;;;;;;7.13;3.88;;;14.20;99.90;;;-141.84;75.29;20334.16;5063691;28;20217;-64
2023/10/06 00:09:56;;;;;;;6.55;4.20;;;14.10;99.90;;;-141.84;74.88;20340.25;5055004;28;20571;-64
2023/10/06 00:12:26;;;;;;;5.93;4.28;;;14.20;99.90;;;-141.84;74.63;20360.59;5062846;28;20239;-64
2023/10/06 00:14:57;;;;;;;7.07;4.25;;;14.20;99.90;;;-141.84;75.08;20340.25;5063071;28;20315;-63
2023/10/06 00:17:28;;;;;;;4.80;3.92;;;14.20;99.90;;;-141.84;75.27;20350.41;5063266;28;20235;-63
2023/10/06 00:19:59;;;;;;;6.32;4.03;;;14.10;99.90;;;-141.84;75.91;20305.69;5055416;28;20204;-63
2023/10/06 00:22:29;;;;;;;4.70;4.20;;;14.10;99.90;;;-141.84;76.42;20285.38;5063724;28;20224;-64
2023/10/06 00:24:59;;;;;;;5.43;4.25;;;14.10;99.90;;;-141.84;76.19;20295.53;5062051;28;20229;-63
2023/10/06 00:27:30;;;;;;;6.78;4.30;;;14.10;99.90;;;-141.84;76.38;20283.34;5062880;28;20263;-64
2023/10/06 00:29:59;;;;;;;4.53;3.50;;;14.10;99.90;;;-141.84;76.58;20275.22;5055004;28;20224;-63
2023/10/06 00:32:27;;;;;;;3.70;3.25;;;14.00;99.90;;;-141.84;76.30;20277.25;5062954;28;20282;-63
2023/10/06 00:35:10;;;;;;;6.30;4.13;;;14.10;99.90;;;-141.84;74.55;20326.03;5062638;28;20215;-63
2023/10/06 00:37:41;;;;;;;5.95;3.42;;;14.10;99.90;;;-141.84;74.84;20317.91;5063036;28;20205;-64
2023/10/06 00:40:19;;;;;;;5.90;3.13;;;14.10;99.90;;;-141.84;75.42;20330.09;5055890;28;20639;-63
2023/10/06 00:42:53;;;;;;;4.60;3.30;;;14.10;99.90;;;-141.84;75.86;20285.38;5062450;28;20602;-62
2023/10/06 00:45:22;;;;;;;6.68;3.60;;;14.00;99.90;;;-141.84;75.35;20326.03;5062517;28;20259;-64
2023/10/06 00:47:53;;;;;;;6.63;3.88;;;14.00;99.90;;;-141.84;75.68;20289.44;5062658;28;20278;-64
2023/10/06 00:50:23;;;;;;;4.57;3.50;;;14.00;99.90;;;-141.84;75.85;20285.38;5062646;28;20610;-64
2023/10/06 00:52:55;;;;;;;4.95;3.22;;;14.10;99.90;;;-141.84;74.92;20307.72;5062944;28;20632;-64
2023/10/06 00:55:30;;;;;;;6.13;3.72;;;14.10;99.90;;;-141.84;75.18;20313.84;5062811;28;20212;-63
2023/10/06 00:57:58;;;;;;;4.78;3.33;;;14.10;99.90;;;-141.84;75.54;20285.38;5054322;28;20236;-63
2023/10/06 01:00:31;;;;;;;7.25;3.78;;;14.10;99.90;;;-141.84;75.48;20301.63;5062214;28;20319;-64
2023/10/06 01:02:59;;;;;;;6.25;3.70;;;14.00;99.90;;;-141.84;75.58;20299.59;5062358;28;20269;-64
2023/10/06 01:05:31;;;;;;;6.43;3.50;;;14.00;99.90;;;-141.84;75.66;20291.47;5062555;28;20239;-64
2023/10/06 01:07:59;;;;;;;4.25;3.60;;;14.00;99.90;;;-141.84;76.25;20263.00;5054521;28;20225;-65
2023/10/06 01:10:34;;;;;;;5.13;3.50;;;14.00;99.90;;;-141.84;76.28;20309.75;5062936;28;20315;-64
2023/10/06 01:13:12;;;;;;;6.00;3.72;;;13.90;99.90;;;-141.84;76.50;20265.03;5062560;28;20320;-64
2023/10/06 01:15:49;;;;;;;6.93;3.67;;;13.90;99.90;;;-141.84;76.63;20273.19;5062731;28;20228;-65
2023/10/06 01:18:23;;;;;;;6.53;3.95;;;13.90;99.90;;;-141.84;76.44;20252.84;5061472;28;20224;-63
2023/10/06 01:20:51;;;;;;;6.60;3.83;;;14.00;99.90;;;-141.84;76.34;20297.56;5066185;28;20322;-63
2023/10/06 01:23:22;;;;;;;5.00;3.83;;;14.00;99.90;;;-141.84;76.52;20260.97;5066490;28;20672;-64
2023/10/06 01:25:53;;;;;;;4.35;3.25;;;13.90;99.90;;;-141.84;76.63;20238.63;5066534;28;20196;-65
2023/10/06 01:28:23;;;;;;;7.68;3.58;;;13.90;99.90;;;-141.84;76.56;20281.31;5066780;28;20223;-64
2023/10/06 01:30:52;;;;;;;5.43;3.38;;;13.90;99.90;;;-141.84;76.74;20250.81;5066656;28;20795;-63
2023/10/06 01:33:20;;;;;;;5.43;3.60;;;13.90;99.90;;;-141.84;76.72;20267.09;5066528;28;20311;-65
2023/10/06 01:35:49;;;;;;;5.07;3.47;;;14.00;99.90;;;-141.84;77.04;20279.28;5065813;28;20273;-63
2023/10/06 01:38:22;;;;;;;4.40;3.42;;;13.90;99.90;;;-141.84;77.02;20260.97;5060637;28;20734;-63
2023/10/06 01:40:53;;;;;;;5.70;3.30;;;13.90;99.90;;;-141.84;76.70;20275.22;5065994;28;20615;-64
2023/10/06 01:43:24;;;;;;;4.63;3.13;;;13.90;99.90;;;-141.84;75.83;20289.44;5066303;28;20232;-64
2023/10/06 01:45:53;;;;;;;4.07;3.08;;;13.90;99.90;;;-141.84;76.38;20279.28;5064072;28;20228;-62
2023/10/06 01:48:23;;;;;;;4.38;3.13;;;14.00;99.90;;;-141.84;76.65;20267.09;5063880;28;20225;-62
2023/10/06 01:50:55;;;;;;;5.53;3.20;;;13.90;99.90;;;-141.84;76.74;20240.66;5066267;28;20234;-63
2023/10/06 01:53:25;;;;;;;6.80;3.53;;;13.90;99.90;;;-141.84;76.64;20254.88;5065841;28;20599;-66
2023/10/06 01:55:55;;;;;;;9.95;3.83;;;13.90;99.90;;;-141.84;75.35;20273.19;5062542;28;20213;-64
2023/10/06 01:58:23;;;;;;;5.93;3.22;;;13.90;99.90;;;-141.84;75.49;20285.38;5065943;28;20201;-64
2023/10/06 02:00:51;;;;;;;6.22;3.42;;;13.90;99.90;;;-141.84;75.26;20299.59;5065141;28;20239;-64
2023/10/06 02:03:21;;;;;;;5.80;3.10;;;14.00;99.90;;;-141.84;75.88;20289.44;5064212;28;20221;-64
2023/10/06 02:05:54;;;;;;;4.85;3.00;;;13.90;99.90;;;-141.84;76.09;20267.09;5065742;28;20232;-64
2023/10/06 02:08:23;;;;;;;6.63;3.10;;;14.00;99.90;;;-141.84;74.77;20301.63;5066062;28;20704;-64
2023/10/06 02:10:51;;;;;;;6.45;3.30;;;14.10;99.90;;;-141.84;74.97;20328.06;5051360;28;20236;-64
2023/10/06 02:13:21;;;;;;;5.82;3.30;;;14.00;99.90;;;-141.84;74.54;20295.53;5065688;28;20619;-64
2023/10/06 02:15:58;;;;;;;5.75;3.10;;;14.00;99.90;;;-141.84;74.94;20307.72;5065856;28;20716;-63
2023/10/06 02:18:35;;;;;;;4.03;3.20;;;14.00;99.90;;;-141.84;75.71;20265.03;5063823;28;20265;-63
2023/10/06 02:21:11;;;;;;;5.80;3.47;;;14.00;99.90;;;-141.84;76.33;20228.47;5064824;28;20644;-64
2023/10/06 02:23:41;;;;;;;4.85;3.30;;;13.90;99.90;;;-141.84;76.95;20252.84;5065197;28;20243;-63
2023/10/06 02:26:12;;;;;;;5.90;3.03;;;13.80;99.90;;;-141.84;77.30;20214.22;5058944;28;20232;-64
2023/10/06 02:28:48;;;;;;;5.93;3.72;;;13.70;99.90;;;-141.84;77.19;20195.94;5064459;28;20660;-64
2023/10/06 02:31:21;;;;;;;6.70;3.13;;;13.70;99.90;;;-141.84;77.47;20195.94;5065387;28;20220;-63
2023/10/06 02:33:51;;;;;;;9.77;3.80;;;13.60;99.90;;;-141.84;78.12;20171.56;5065038;28;20268;-64
2023/10/06 02:36:21;;;;;;;5.03;3.60;;;13.50;99.90;;;-141.84;78.54;20157.31;5064884;28;20236;-63
2023/10/06 02:38:51;;;;;;;4.65;3.33;;;13.40;99.90;;;-141.84;79.01;20159.34;5065322;28;20339;-64
2023/10/06 02:41:25;;;;;;;7.10;3.85;;;13.40;99.90;;;-141.84;78.99;20147.16;5065072;28;20707;-63
2023/10/06 02:43:57;;;;;;;4.20;3.30;;;13.40;99.90;;;-141.84;79.35;20124.81;5061034;28;20253;-64
2023/10/06 02:46:25;;;;;;;6.07;3.30;;;13.30;99.90;;;-141.84;79.24;20143.09;5064678;28;20211;-64
2023/10/06 02:48:55;;;;;;;5.85;3.88;;;13.30;99.90;;;-141.84;78.80;20163.41;5064394;28;20234;-63
2023/10/06 02:51:32;;;;;;;6.80;3.90;;;13.40;99.90;;;-141.84;77.83;20161.38;5064654;28;20236;-63
2023/10/06 02:54:21;;;;;;;4.50;4.00;;;13.40;99.90;;;-141.84;78.01;20173.59;5057503;28;20243;-63
2023/10/06 02:56:50;;;;;;;7.55;4.43;;;13.40;99.90;;;-141.84;77.44;20191.88;5064365;28;20244;-64
2023/10/06 02:59:24;;;;;;;6.43;4.45;;;13.50;99.90;;;-141.84;77.51;20202.03;5057960;28;20233;-63
2023/10/06 03:01:56;;;;;;;5.65;4.43;;;13.50;99.90;;;-141.84;77.56;20159.34;5042844;28;20293;-65
2023/10/06 03:04:28;;;;;;;4.90;3.85;;;13.50;99.90;;;-141.84;77.85;20181.72;5045210;28;20209;-64
2023/10/06 03:06:59;;;;;;;5.75;3.88;;;13.50;99.90;;;-141.84;77.83;20175.63;5044063;28;20239;-64
2023/10/06 03:09:36;;;;;;;6.07;3.42;;;13.50;99.90;;;-141.84;77.57;20169.53;5044489;28;20261;-63
2023/10/06 03:12:12;;;;;;;5.03;3.65;;;13.50;99.90;;;-141.84;78.34;20149.19;5052383;28;20232;-63
2023/10/06 03:14:42;;;;;;;4.95;3.13;;;13.40;99.90;;;-141.84;77.50;20141.06;5064260;28;20228;-63
2023/10/06 03:17:13;;;;;;;4.63;3.20;;;13.40;99.90;;;-141.84;78.14;20124.81;5064309;28;20784;-63
2023/10/06 03:19:41;;;;;;;5.45;3.22;;;13.40;99.90;;;-141.84;78.59;20143.09;5064222;28;20212;-64
2023/10/06 03:22:12;;;;;;;8.13;3.67;;;13.30;99.90;;;-141.84;78.72;20132.94;5056621;28;20330;-64
2023/10/06 03:24:52;;;;;;;6.30;4.07;;;13.30;99.90;;;-141.84;78.95;20110.56;5064300;28;20315;-63
2023/10/06 03:27:23;;;;;;;5.47;4.13;;;13.20;99.90;;;-141.84;79.22;20134.97;5064215;28;20220;-63
2023/10/06 03:29:55;;;;;;;7.30;4.07;;;13.20;99.90;;;-141.84;79.57;20092.28;5063821;28;20239;-64
2023/10/06 03:32:32;;;;;;;7.22;4.30;;;13.20;99.90;;;-141.84;79.49;20110.56;5063635;28;20239;-66
2023/10/06 03:35:14;;;;;;;6.35;5.20;;;13.10;99.90;;;-141.84;79.25;20108.53;5063879;28;20277;-64
2023/10/06 03:37:51;;;;;;;5.15;4.20;;;13.10;99.90;;;-141.84;79.75;20112.59;5063221;28;20208;-64
2023/10/06 03:40:24;;;;;;;5.20;4.65;;;13.10;99.90;;;-141.84;80.57;20065.84;5060110;28;20209;-63
2023/10/06 03:42:53;;;;;;;8.20;4.50;;;13.00;99.90;;;-141.84;80.74;20049.59;5063447;28;20240;-65
2023/10/06 03:45:31;;;;;;;5.65;4.95;;;12.90;99.90;;;-141.84;81.08;20055.69;5063634;28;20275;-64
2023/10/06 03:48:11;;;;;;;7.68;5.15;;;12.90;99.90;;;-141.84;81.38;20071.97;5055723;28;20228;-63
2023/10/06 03:50:41;;;;;;;6.18;4.28;;;12.80;99.90;;;-141.84;81.66;20039.44;5063414;28;20805;-64
2023/10/06 03:53:14;;;;;;;6.35;3.78;;;12.80;99.90;;;-141.84;81.71;20045.53;5063366;28;20224;-63
2023/10/06 03:55:45;;;;;;;5.78;3.75;;;12.70;99.90;;;-141.84;81.85;20057.72;5055702;28;20297;-65
2023/10/06 03:58:16;;;;;;;5.20;4.50;;;12.70;99.90;;;-141.84;82.23;20031.31;5044976;28;20278;-63
2023/10/06 04:00:49;;;;;;;5.05;4.57;;;12.70;99.90;;;-141.84;82.68;19964.25;5083432;28;20265;-64
2023/10/06 04:03:19;;;;;;;6.82;5.32;;;12.60;99.90;;;-141.84;83.00;19978.47;5083307;28;20239;-63
2023/10/06 04:05:49;;;;;;;6.82;4.85;;;12.60;99.90;;;-141.84;83.38;19964.25;5083664;28;20254;-64
2023/10/06 04:08:20;;;;;;;6.80;3.70;;;12.50;99.90;;;-141.84;83.57;19968.31;5067835;28;20264;-64
2023/10/06 04:10:54;;;;;;;6.18;3.55;;;12.50;99.90;;;-141.84;83.14;19986.59;5063541;28;20216;-65
2023/10/06 04:13:23;;;;;;;5.73;3.30;;;12.50;99.90;;;-141.84;82.88;20027.25;5063858;28;20208;-65
2023/10/06 04:15:56;;;;;;;5.63;3.97;;;12.50;99.90;;;-141.84;83.55;19978.47;5063248;28;20753;-64
2023/10/06 04:18:25;;;;;;;5.95;3.58;;;12.50;99.90;;;-141.84;83.89;19972.38;5062671;28;20302;-64
2023/10/06 04:20:55;;;;;;;6.90;3.90;;;12.50;99.90;;;-141.84;84.01;20006.91;5063009;28;20603;-65
2023/10/06 04:23:23;;;;;;;7.00;3.77;;;12.40;99.90;;;-141.84;84.00;19982.53;5062680;28;20248;-64
2023/10/06 04:25:56;;;;;;;6.68;4.00;;;12.50;99.90;;;-141.84;84.04;19980.50;5061165;28;20534;-64
2023/10/06 04:28:27;;;;;;;6.67;3.70;;;12.40;99.90;;;-141.84;83.82;19986.59;5063228;28;20659;-65
2023/10/06 04:31:00;;;;;;;5.23;3.60;;;12.40;99.90;;;-141.84;81.67;20031.31;5062893;28;20248;-64
2023/10/06 04:33:29;;;;;;;7.55;3.67;;;12.60;99.90;;;-141.84;82.14;19986.59;5062633;28;20442;-64
2023/10/06 04:35:59;;;;;;;7.57;3.97;;;12.60;99.90;;;-141.84;82.14;20010.97;5054867;28;20305;-66
2023/10/06 04:38:29;;;;;;;5.23;3.67;;;12.70;99.90;;;-141.84;80.47;20061.78;5062545;28;20235;-63
2023/10/06 04:40:57;;;;;;;4.53;3.33;;;12.70;99.90;;;-141.84;80.61;20047.56;5062491;28;20223;-64
2023/10/06 04:43:26;;;;;;;5.15;3.40;;;12.70;99.90;;;-141.84;80.63;20002.84;5062860;28;20253;-64
2023/10/06 04:45:55;;;;;;;10.25;3.67;;;12.80;99.90;;;-141.84;80.88;20067.88;5055384;28;20233;-63
2023/10/06 04:48:24;;;;;;;4.55;3.97;;;12.80;99.90;;;-141.84;80.12;20074.00;5062648;28;20485;-63
2023/10/06 04:50:55;;;;;;;6.10;3.67;;;12.90;99.90;;;-141.84;78.62;20114.63;5062262;28;20224;-64
2023/10/06 04:53:23;;;;;;;5.00;3.73;;;12.90;99.90;;;-141.84;77.81;20094.31;5043533;28;20225;-64
2023/10/06 04:55:52;;;;;;;6.82;3.90;;;13.00;99.90;;;-141.84;78.11;20124.81;5048330;28;20345;-64
2023/10/06 04:58:20;;;;;;;8.35;3.85;;;13.00;99.90;;;-141.84;78.86;20094.31;5060681;28;20208;-64
2023/10/06 05:00:52;;;;;;;4.82;3.45;;;13.10;99.90;;;-141.84;78.43;20096.34;5041791;28;20237;-63
2023/10/06 05:03:23;;;;;;;7.18;3.80;;;13.00;99.90;;;-141.84;78.99;20076.03;5061669;28;20252;-64
2023/10/06 05:05:55;;;;;;;5.57;3.83;;;13.00;99.90;;;-141.84;79.19;20104.47;5060881;28;20270;-65
2023/10/06 05:08:24;;;;;;;5.28;3.80;;;13.20;99.90;;;-141.84;78.67;20100.41;5062692;28;20232;-65
2023/10/06 05:10:55;;;;;;;5.20;4.27;;;13.00;99.90;;;-141.84;78.18;20074.00;5062266;28;20291;-65
2023/10/06 05:13:26;;;;;;;6.38;3.88;;;13.00;99.90;;;-141.84;78.27;20102.44;5062854;28;20228;-64
2023/10/06 05:15:55;;;;;;;6.45;3.85;;;13.00;99.90;;;-141.84;78.89;20057.72;5055082;28;20228;-63
2023/10/06 05:18:24;;;;;;;4.47;3.92;;;13.00;99.90;;;-141.84;79.63;20065.84;5061144;28;20646;-65
2023/10/06 05:20:53;;;;;;;7.13;4.05;;;13.00;99.90;;;-141.84;80.09;20057.72;5062317;28;20328;-63
2023/10/06 05:23:21;;;;;;;6.72;4.25;;;12.90;99.90;;;-141.84;80.30;20078.06;5062162;28;20228;-65
2023/10/06 05:25:49;;;;;;;7.60;4.20;;;13.00;99.90;;;-141.84;80.18;20088.22;5061186;28;20228;-65
2023/10/06 05:28:17;;;;;;;6.27;4.37;;;13.00;99.90;;;-141.84;79.93;20049.59;5057001;28;20217;-64
2023/10/06 05:30:46;;;;;;;7.85;4.80;;;13.00;99.90;;;-141.84;79.90;20071.97;5062079;28;20765;-65
2023/10/06 05:33:15;;;;;;;5.85;4.30;;;13.00;99.90;;;-141.84;79.95;20082.13;5062487;28;20236;-64
2023/10/06 05:35:46;;;;;;;7.85;4.30;;;13.00;99.90;;;-141.84;79.26;20094.31;5062438;28;20220;-64
2023/10/06 05:38:14;;;;;;;7.72;4.38;;;13.00;99.90;;;-141.84;78.13;20147.16;5054149;28;20406;-61
2023/10/06 05:40:44;;;;;;;6.28;4.55;;;13.10;99.90;;;-141.84;77.96;20122.78;5061506;28;20212;-62
2023/10/06 05:43:15;;;;;;;5.93;4.60;;;13.10;99.90;;;-141.84;77.83;20132.94;5062311;28;20232;-61
2023/10/06 05:45:45;;;;;;;5.40;4.10;;;13.10;99.90;;;-141.84;77.55;20171.56;5061693;28;20289;-62
2023/10/06 05:48:16;;;;;;;12.45;4.53;;;13.20;99.90;;;-141.84;77.11;20167.47;5047044;28;20447;-60
2023/10/06 05:50:45;;;;;;;6.65;4.00;;;13.30;99.90;;;-141.84;77.78;20120.75;5051979;28;20272;-61
2023/10/06 05:53:19;;;;;;;5.47;4.07;;;13.30;99.90;;;-141.84;77.89;20143.09;5062186;28;20688;-60
2023/10/06 05:55:49;;;;;;;6.75;4.00;;;13.30;99.90;;;-141.84;75.90;20226.44;5061335;28;20236;-61
2023/10/06 05:58:19;;;;;;;10.05;4.43;;;13.40;99.90;;;-141.84;76.49;20212.19;5057674;28;20217;-61
2023/10/06 06:00:52;;;;;;;5.72;4.10;;;13.40;99.90;;;-141.84;76.60;20187.81;5041675;28;20233;-62
2023/10/06 06:03:21;;;;;;;8.35;4.53;;;13.50;99.90;;;-141.84;76.16;20173.59;5056819;28;20233;-60
2023/10/06 06:05:53;;;;;;;8.45;4.28;;;13.50;99.90;;;-141.84;76.49;20173.59;5065212;28;20606;-60
2023/10/06 06:08:21;;;;;;;7.07;4.13;;;13.60;99.90;;;-141.84;76.70;20183.75;5062493;28;20232;-60
2023/10/06 06:10:50;;;;;;;4.25;3.80;;;13.60;99.90;;;-141.84;76.23;20210.16;5061119;28;20324;-61
2023/10/06 06:13:18;;;;;;;6.93;3.92;;;13.60;99.90;;;-141.84;76.19;20187.81;5057101;28;20228;-60
2023/10/06 06:15:50;;;;;;;6.88;4.00;;;13.60;99.90;;;-141.84;76.36;20175.63;5065832;28;20715;-61
2023/10/06 06:18:18;;;;;;;6.13;4.10;;;13.60;99.90;;;-141.84;76.54;20159.34;5061211;28;20243;-61
2023/10/06 06:20:46;;;;;;;8.05;4.20;;;13.60;99.90;;;-141.84;76.12;20216.25;5065745;28;20231;-61
2023/10/06 06:23:16;;;;;;;7.00;4.47;;;13.70;99.90;;;-141.84;75.17;20195.94;5065199;28;20232;-61
2023/10/06 06:25:45;;;;;;;5.60;3.90;;;13.70;99.90;;;-141.84;76.22;20183.75;5064798;28;20221;-61
2023/10/06 06:28:14;;;;;;;5.00;3.85;;;13.70;99.90;;;-141.84;76.93;20183.75;5058221;28;21151;-61
2023/10/06 06:30:42;;;;;;;7.40;3.90;;;13.70;99.90;;;-141.84;76.51;20214.22;5065416;28;20228;-63
2023/10/06 06:33:13;;;;;;;11.02;4.53;;;13.70;99.90;;;-141.84;76.60;20159.34;5065540;28;20278;-61
2023/10/06 06:35:43;;;;;;;6.90;4.25;;;13.60;99.90;;;-141.84;76.88;20153.25;5064631;28;20719;-60
2023/10/06 06:38:12;;;;;;;7.28;4.40;;;13.60;99.90;;;-141.84;76.65;20157.31;5057125;28;20779;-61
2023/10/06 06:40:43;;;;;;;6.35;4.53;;;13.60;99.90;;;-141.84;76.60;20179.69;5063960;28;20217;-61
2023/10/06 06:43:11;;;;;;;4.70;3.95;;;13.70;99.90;;;-141.84;76.85;20187.81;5064894;28;20288;-59
2023/10/06 06:45:43;;;;;;;7.60;4.40;;;13.70;99.90;;;-141.84;76.70;20208.13;5063186;28;20239;-61
2023/10/06 06:48:13;;;;;;;8.07;4.60;;;13.80;99.90;;;-141.84;75.94;20208.13;5057624;28;20229;-60
2023/10/06 06:50:43;;;;;;;5.88;3.92;;;13.90;99.90;;;-141.84;75.34;20256.91;5065032;28;20236;-64
2023/10/06 06:53:12;;;;;;;9.45;4.55;;;14.00;99.90;;;-141.84;73.97;20263.00;5064665;28;20234;-60
2023/10/06 06:55:42;;;;;;;7.53;3.97;;;14.10;99.90;;;-141.84;74.34;20283.34;5064466;28;20214;-61
2023/10/06 06:58:16;;;;;;;7.05;3.90;;;14.10;99.90;;;-141.84;74.36;20334.16;5057493;28;20662;-61
2023/10/06 07:00:47;;;;;;;6.25;3.97;;;14.20;99.90;;;-141.84;74.08;20277.25;5084226;28;20240;-60
2023/10/06 07:03:16;;;;;;;7.13;3.90;;;14.20;99.90;;;-141.84;73.47;20344.31;5085253;28;20223;-61
2023/10/06 07:05:44;;;;;;;8.55;4.70;;;14.20;99.90;;;-141.84;73.59;20332.13;5084525;28;20777;-61
2023/10/06 07:08:12;;;;;;;8.38;4.38;;;14.20;99.90;;;-141.84;73.90;20321.97;5077416;28;20948;-61
2023/10/06 07:10:46;;;;;;;7.60;4.10;;;14.30;99.90;;;-141.84;73.35;20368.72;5079741;28;20682;-62
2023/10/06 07:13:15;;;;;;;7.10;4.18;;;14.40;99.90;;;-141.84;72.20;20384.97;5064484;28;20243;-61
2023/10/06 07:15:44;;;;;;;6.32;4.07;;;14.50;99.90;;;-141.84;72.48;20415.47;5064305;28;20256;-61
2023/10/06 07:18:14;;;;;;;8.02;3.50;;;14.60;99.90;;;-141.84;72.22;20368.72;5057690;28;20339;-61
2023/10/06 07:20:44;;;;;;;7.43;4.07;;;14.60;99.90;;;-141.84;71.42;20387.00;5064575;28;20259;-62
2023/10/06 07:23:12;;;;;;;5.75;4.32;;;14.60;99.90;;;-141.84;71.24;20439.84;5064442;28;20256;-61
2023/10/06 07:25:42;;;;;;;4.82;3.53;;;14.70;99.90;;;-141.84;70.57;20401.22;5063967;28;20308;-61
2023/10/06 07:28:12;;;;;;;9.60;4.32;;;14.80;99.90;;;-141.84;69.29;20476.44;5055404;28;20201;-60
2023/10/06 07:30:41;;;;;;;6.13;3.88;;;14.80;99.90;;;-141.84;69.55;20484.56;5064108;28;20317;-61
2023/10/06 07:33:09;;;;;;;7.78;3.75;;;14.90;99.90;;;-141.84;69.03;20460.19;5063689;28;20237;-59
2023/10/06 07:35:41;;;;;;;6.32;3.50;;;14.90;99.90;;;-141.84;69.24;20435.78;5063775;28;20268;-60
2023/10/06 07:38:10;;;;;;;5.43;3.88;;;14.80;99.90;;;-141.84;68.85;20486.59;5056743;28;20303;-61
2023/10/06 07:40:39;;;;;;;6.68;3.33;;;14.80;99.90;;;-141.84;69.46;20450.03;5056930;28;20240;-60
2023/10/06 07:43:10;;;;;;;8.35;4.13;;;14.90;99.90;;;-141.84;69.61;20462.22;5057644;28;20259;-61
2023/10/06 07:45:38;;;;;;;8.20;4.22;;;14.80;99.90;;;-141.84;68.68;20484.56;5063314;28;20278;-60
2023/10/06 07:48:07;;;;;;;5.18;3.60;;;14.90;99.90;;;-141.84;67.75;20541.50;5055721;28;20232;-60
2023/10/06 07:50:36;;;;;;;8.90;3.65;;;15.10;99.90;;;-141.84;68.25;20480.50;5063211;28;20247;-61
2023/10/06 07:53:04;;;;;;;6.60;3.67;;;15.10;99.90;;;-141.84;68.31;20502.88;5063122;28;20234;-64
2023/10/06 07:55:32;;;;;;;5.60;3.95;;;15.10;99.90;;;-141.84;67.92;20513.03;5063252;28;20209;-64
2023/10/06 07:58:03;;;;;;;6.72;3.58;;;15.10;99.90;;;-141.84;67.08;20571.97;5055159;28;20252;-60
2023/10/06 08:00:38;;;;;;;5.85;3.45;;;15.30;99.90;;;-141.84;66.49;20610.59;5065190;28;20727;-60
2023/10/06 08:03:07;;;;;;;7.00;3.80;;;15.40;99.90;;;-141.84;66.34;20569.94;5062464;28;20626;-59
2023/10/06 08:05:38;;;;;;;10.27;4.00;;;15.50;99.90;;;-141.84;66.51;20604.50;5062300;28;20220;-61
2023/10/06 08:08:07;;;;;;;8.90;4.07;;;15.50;99.90;;;-141.84;66.61;20643.13;5055095;28;20245;-65
2023/10/06 08:10:36;;;;;;;7.28;3.63;;;15.60;99.90;;;-141.84;66.23;20639.06;5062487;28;20686;-65
2023/10/06 08:13:04;;;;;;;5.43;3.47;;;15.70;99.90;;;-141.84;66.09;20643.13;5062491;28;20225;-64
2023/10/06 08:15:35;;;;;;;6.53;3.55;;;15.80;99.90;;;-141.84;65.45;20643.13;5062382;28;20238;-65
2023/10/06 08:18:06;;;;;;;5.57;3.67;;;15.80;99.90;;;-141.84;65.32;20685.81;5048221;28;20229;-60
2023/10/06 08:20:35;;;;;;;7.43;4.20;;;15.80;99.90;;;-141.84;65.42;20639.06;5043209;28;20229;-62
2023/10/06 08:23:06;;;;;;;6.30;3.67;;;15.90;99.90;;;-141.84;65.04;20710.22;5043104;28;20263;-62
2023/10/06 08:25:35;;;;;;;9.10;3.78;;;16.00;99.90;;;-141.84;64.45;20732.56;5050152;28;20197;-62
2023/10/06 08:28:24;;;;;;;5.15;3.50;;;16.00;99.90;;;-141.84;64.29;20720.38;5037699;28;20226;-61
2023/10/06 08:30:54;;;;;;;5.18;3.38;;;16.00;99.90;;;-141.84;63.86;20775.25;5022520;28;20234;-62
2023/10/06 08:33:25;;;;;;;8.90;3.67;;;16.10;99.90;;;-141.84;64.07;20700.03;5022585;28;20249;-64
2023/10/06 08:35:57;;;;;;;8.57;3.95;;;16.20;99.90;;;-141.84;63.24;20783.41;5015827;28;20238;-60
2023/10/06 08:38:26;;;;;;;5.32;3.83;;;16.30;99.90;;;-141.84;62.93;20834.22;5023384;28;20233;-62
2023/10/06 08:41:01;;;;;;;6.25;3.88;;;16.60;99.90;;;-141.84;61.00;20883.00;5038247;28;20232;-62
2023/10/06 08:43:32;;;;;;;7.72;3.63;;;16.80;99.90;;;-141.84;60.37;20960.25;5045499;28;20196;-61
2023/10/06 08:46:02;;;;;;;4.65;3.40;;;17.00;99.90;;;-141.84;60.98;20913.50;5021699;28;20268;-62
2023/10/06 08:48:32;;;;;;;8.38;3.83;;;17.00;99.90;;;-141.84;61.05;20968.38;5042752;28;20739;-61
2023/10/06 08:51:07;;;;;;;5.70;3.92;;;17.10;99.90;;;-141.84;59.95;20972.47;5042512;28;20263;-64
2023/10/06 08:53:38;;;;;;;7.15;3.92;;;17.30;99.90;;;-141.84;60.73;20927.72;5042688;28;20258;-62
2023/10/06 08:56:07;;;;;;;8.05;4.95;;;17.20;99.90;;;-141.84;60.72;20931.78;5033940;28;20231;-63
2023/10/06 08:58:36;;;;;;;4.15;3.70;;;17.00;99.90;;;-141.84;61.69;20905.38;5042221;28;20209;-63
2023/10/06 09:01:06;;;;;;;7.65;3.53;;;16.90;99.90;;;-141.84;61.69;20907.41;5041932;28;20392;-64
2023/10/06 09:03:38;;;;;;;6.57;3.88;;;16.80;99.90;;;-141.84;61.76;20866.75;5042433;28;20225;-66
2023/10/06 09:06:11;;;;;;;7.00;3.20;;;16.90;99.90;;;-141.84;61.32;20911.47;5034469;28;20229;-67
2023/10/06 09:08:43;;;;;;;6.20;3.30;;;16.90;99.90;;;-141.84;61.62;20870.81;5041657;28;20260;-66
2023/10/06 09:11:11;;;;;;;4.68;3.50;;;16.90;99.90;;;-141.84;61.29;20915.53;5032715;28;20222;-66
2023/10/06 09:13:41;;;;;;;7.57;5.13;;;17.00;99.90;;;-141.84;59.72;20937.91;5021693;28;20206;-63
2023/10/06 09:16:11;;;;;;;7.38;3.63;;;17.10;99.90;;;-141.84;59.91;20946.03;5032931;28;20262;-61
2023/10/06 09:18:40;;;;;;;5.15;3.70;;;17.10;99.90;;;-141.84;59.26;20982.63;5040930;28;20233;-61
2023/10/06 09:21:15;;;;;;;6.05;4.20;;;17.20;99.90;;;-141.84;59.29;20990.75;5041803;28;20321;-60
2023/10/06 09:23:44;;;;;;;4.57;3.30;;;17.30;99.90;;;-141.84;58.77;21007.00;5042393;28;20236;-68
2023/10/06 09:26:15;;;;;;;5.75;3.55;;;17.40;99.90;;;-141.84;58.56;21009.03;5034110;28;20569;-63
2023/10/06 09:28:51;;;;;;;7.10;3.63;;;17.50;99.90;;;-141.84;57.35;21114.75;5041851;28;20209;-63
2023/10/06 09:31:36;;;;;;;5.57;3.13;;;17.60;99.90;;;-141.84;57.50;21029.38;5042142;28;20688;-62
2023/10/06 09:34:07;;;;;;;5.90;3.58;;;17.60;99.90;;;-141.84;58.74;21000.91;5018028;28;21000;-64
2023/10/06 09:36:37;;;;;;;5.45;3.10;;;17.50;99.90;;;-141.84;58.87;20990.75;5022949;28;20226;-61
2023/10/06 09:39:29;;;;;;;5.60;3.03;;;17.40;99.90;;;-141.84;58.35;21023.28;5027840;28;20241;-62
2023/10/06 09:42:01;;;;;;;7.25;3.72;;;17.50;99.90;;;-141.84;57.56;21027.34;5018331;28;20232;-62
2023/10/06 09:44:34;;;;;;;6.55;2.83;;;17.50;99.90;;;-141.84;57.36;21049.72;5025565;28;20236;-61
2023/10/06 09:47:08;;;;;;;4.55;3.20;;;17.50;99.90;;;-141.84;57.46;21043.59;5037569;28;20343;-62
2023/10/06 09:49:38;;;;;;;5.13;3.28;;;17.50;99.90;;;-141.84;57.30;21033.44;5045952;28;20208;-62
2023/10/06 09:52:07;;;;;;;7.38;3.65;;;17.60;99.90;;;-141.84;56.89;21135.09;5037171;28;20225;-62
2023/10/06 09:54:38;;;;;;;5.38;3.50;;;17.80;99.90;;;-141.84;56.39;21104.59;5045175;28;20229;-64
2023/10/06 09:57:07;;;;;;;6.78;4.18;;;17.90;99.90;;;-141.84;57.38;21025.31;5044997;28;20271;-65
2023/10/06 09:59:38;;;;;;;4.93;2.90;;;17.80;99.90;;;-141.84;58.13;21057.84;5044745;28;20261;-65
2023/10/06 10:02:14;;;;;;;7.45;3.53;;;17.70;99.90;;;-141.84;56.95;21114.75;5037664;28;20330;-64
2023/10/06 10:04:46;;;;;;;5.78;3.72;;;17.80;99.90;;;-141.84;55.94;21167.63;5044903;28;20319;-62
2023/10/06 10:07:14;;;;;;;4.15;2.67;;;17.90;99.90;;;-141.84;54.84;21202.19;5045808;28;20685;-61
2023/10/06 10:09:44;;;;;;;5.00;2.95;;;18.10;99.90;;;-141.84;55.02;21171.69;5044883;28;20323;-60
2023/10/06 10:12:34;;;;;;;5.03;2.85;;;18.10;99.90;;;-141.84;55.68;21147.28;5037031;28;20882;-60
2023/10/06 10:15:21;;;;;;;4.35;2.83;;;18.10;99.90;;;-141.84;56.46;21143.22;5044246;28;20719;-61
2023/10/06 10:18:05;;;;;;;5.18;2.78;;;18.00;99.90;;;-141.84;55.75;21086.31;5042640;28;20658;-62
2023/10/06 10:20:34;;;;;;;3.22;2.40;;;17.90;99.90;;;-141.84;55.92;21110.69;5043629;28;20319;-63
2023/10/06 10:23:03;;;;;;;4.88;2.70;;;17.80;99.90;;;-141.84;56.09;21139.16;5043712;28;20563;-62